• Join FlightAware (Why Join?)
  • Login
  • US Flag 
09:25AM EDT


 

Airport Tracker/Info


-or-


 

Live Flight TrackerFlight Track Log ✈ SWA706 ✈ 14-Sep-2013 ✈ KSTL - KBWI

Flight Track Log - Related Links

Times and Time Zones

All times are in EDT time to prevent confusion due to time zone crossing. See the SWA706 flight status page for this flight to view local times or setup timezone preferences in your user account.

Time Position Orientation Groundspeed Altitude Reporting Facility
EDT Latitude Longitude Course Direction KTS MPH feet Rate Location/Type
02:28PM 38.7867 -90.3108 87° East 224 258 4,300  Level Kansas City Center
02:29PM 38.7861 -90.2167 90° East 247 284 7,900 3,300 Climbing Kansas City Center
02:30PM 38.7881 -90.1094 89° East 291 335 11,200 3,120 Climbing Kansas City Center
02:31PM 38.7897 -89.9875 89° East 327 376 14,400 2,940 Climbing Kansas City Center
02:32PM 38.8200 -89.5471 83° East  Level Estimated
02:32PM 38.7908 -89.8583 89° East 356 410 17,300  Level Kansas City Center
02:33PM 38.7914 -89.7208 90° East 375 432 19,800 2,340 Climbing Kansas City Center
02:34PM 38.7928 -89.5519 89° East 398 458 22,200 2,400 Climbing Kansas City Center
02:35PM 38.8081 -89.3867 83° East 431 496 24,800 2,460 Climbing Kansas City Center
02:36PM 38.8275 -89.2358 81° East 430 495 27,300 1,980 Climbing Kansas City Center
02:37PM 38.8464 -89.0825 81° East 436 502 28,900 1,440 Climbing Kansas City Center
02:38PM 38.8678 -88.9339 79° East 449 517 30,300 1,620 Climbing Kansas City Center
02:39PM 38.8894 -88.7725 80° East 458 527 32,300 2,280 Climbing Kansas City Center
02:40PM 38.9094 -88.6003 81° East 440 506 35,000 1,980 Climbing Kansas City Center
02:41PM 38.9314 -88.4519 79° East 426 490 36,400 960 Climbing Kansas City Center
02:42PM 38.9708 -88.3094 70° East 420 483 37,000 240 Climbing Kansas City Center
02:43PM 39.0103 -88.1667 70° East 420 483 37,000  Level Kansas City Center
02:44PM 39.0397 -88.0553 71° East 421 484 37,000  Level Indianapolis Center
02:45PM 39.0797 -87.9108 70° East 425 489 37,000  Level Indianapolis Center
02:46PM 39.1189 -87.7686 70° East 420 483 37,000  Level Indianapolis Center
02:47PM 39.1633 -87.6047 71° East 422 486 37,000  Level Indianapolis Center
02:48PM 39.2022 -87.4636 70° East 421 484 37,000  Level Indianapolis Center
02:49PM 39.2411 -87.3231 70° East 420 483 37,000  Level Indianapolis Center
02:50PM 39.2644 -87.1744 78° East 423 487 37,000  Level Indianapolis Center
02:51PM 39.2864 -87.0233 79° East 428 493 37,000  Level Indianapolis Center
02:52PM 39.3078 -86.8747 79° East 425 489 37,000  Level Indianapolis Center
02:53PM 39.3294 -86.7247 79° East 428 493 37,000  Level Indianapolis Center
02:54PM 39.3547 -86.5447 80° East 429 494 37,000  Level Indianapolis Center
02:55PM 39.3761 -86.3953 79° East 428 493 37,000  Level Indianapolis Center
02:56PM 39.3961 -86.2453 80° East 429 494 37,000  Level Indianapolis Center
02:57PM 39.4164 -86.0953 80° East 430 495 37,000  Level Indianapolis Center
02:58PM 39.4378 -85.9453 79° East 430 495 37,000  Level Indianapolis Center
02:59PM 39.4617 -85.7642 80° East 430 495 37,000  Level Indianapolis Center
03:00PM 39.4825 -85.6133 80° East 430 495 37,000  Level Indianapolis Center
03:01PM 39.5025 -85.4597 80° East 434 499 37,000  Level Indianapolis Center
03:02PM 39.5225 -85.3064 80° East 435 501 37,000  Level Indianapolis Center
03:03PM 39.5428 -85.1517 80° East 438 504 37,000  Level Indianapolis Center
03:04PM 39.5625 -84.9964 81° East 440 506 37,000  Level Indianapolis Center
03:05PM 39.5856 -84.8231 80° East 442 509 37,000  Level Indianapolis Center
03:06PM 39.6056 -84.6658 81° East 444 511 37,000  Level Indianapolis Center
03:07PM 39.6233 -84.5069 82° East 446 513 37,000  Level Indianapolis Center
03:08PM 39.6431 -84.3494 81° East 446 513 37,000  Level Indianapolis Center
03:09PM 39.6650 -84.1594 81° East 445 512 37,000  Level Indianapolis Center
03:11PM 39.6856 -84.0014 80° East 446 513 37,000  Level Indianapolis Center
03:12PM 39.7028 -83.8425 82° East 446 513 37,000  Level Indianapolis Center
03:13PM 39.7214 -83.6839 81° East 448 516 37,000  Level Indianapolis Center
03:14PM 39.7375 -83.5267 82° East 449 517 37,000  Level Indianapolis Center
03:15PM 39.7603 -83.3378 81° East 455 524 37,000  Level Indianapolis Center
03:16PM 39.7786 -83.1786 81° East 453 521 37,000  Level Indianapolis Center
03:17PM 39.7964 -83.0186 82° East 452 520 37,000  Level Indianapolis Center
03:18PM 39.8136 -82.8586 82° East 451 519 37,000  Level Indianapolis Center
03:19PM 39.8308 -82.6994 82° East 447 514 37,000  Level Indianapolis Center
03:20PM 39.8483 -82.5378 82° East 451 519 37,000 -420 Level Indianapolis Center
03:21PM 39.8478 -82.3403 90° East 463 533 36,200 -840 Descending Indianapolis Center
03:22PM 39.8408 -82.1769 93° East 456 525 35,300 -600 Descending Indianapolis Center
03:23PM 39.8339 -82.0144 93° East 453 521 35,000 -180 Descending Indianapolis Center
03:24PM 39.8267 -81.8547 93° East 446 513 35,000  Level Indianapolis Center
03:25PM 39.8181 -81.6928 94° East 449 517 35,000  Level Indianapolis Center
03:26PM 39.8106 -81.5303 93° East 451 519 35,000  Level Indianapolis Center
03:27PM 39.8011 -81.3478 94° East 457 526 35,000  Level Indianapolis Center
03:28PM 39.7925 -81.1831 94° East 456 525 35,000 -540 Level Indianapolis Center
03:29PM 39.7825 -81.0194 94° East 454 522 33,900 -1,020 Descending Indianapolis Center
03:30PM 39.7747 -80.8589 94° East 446 513 33,000 -480 Descending Indianapolis Center
03:31PM 39.7644 -80.6958 95° East 449 517 33,000  Level Indianapolis Center
03:32PM 39.7594 -80.5769 93° East 447 514 33,000  Level Cleveland Center
03:33PM 39.7500 -80.4142 94° East 456 525 33,000 -360 Level Cleveland Center
03:34PM 39.7397 -80.2531 95° East 454 522 32,300 -960 Descending Cleveland Center
03:35PM 39.7264 -80.0572 95° East 456 525 31,100 -660 Descending Cleveland Center
03:36PM 39.7189 -79.8967 93° East 450 518 31,000 -60 Descending Cleveland Center
03:37PM 39.7061 -79.7314 96° East 459 528 31,000  Level Cleveland Center
03:38PM 39.6944 -79.5656 95° East 463 533 31,000  Level Cleveland Center
03:39PM 39.6833 -79.4017 95° East 460 529 31,000 -2,040 Level Cleveland Center
03:40PM 39.6697 -79.2047 95° East 460 529 26,900 -2,940 Descending Cleveland Center
03:41PM 39.6511 -79.0453 99° East 453 521 25,000 -1,560 Descending Cleveland Center
03:42PM 39.6172 -78.8936 106° East 450 518 23,700 -2,460 Descending Cleveland Center
03:43PM 39.5844 -78.7375 105° East 448 516 20,000 -2,400 Descending Cleveland Center
03:44PM 39.5511 -78.5978 107° East 439 505 19,100 -1,020 Descending Washington Center
03:45PM 39.5214 -78.4539 105° East 423 487 18,200 -960 Descending Washington Center
03:46PM 39.4892 -78.3131 106° East 418 481 17,300 -1,080 Descending Washington Center
03:47PM 39.4606 -78.1908 107° East 408 470 16,100 -1,140 Descending Washington Center
03:48PM 39.4322 -78.0528 105° East 396 456 15,100 -540 Descending Washington Center
03:49PM 39.4142 -77.9153 100° East 391 450 15,100  Level Washington Center
03:50PM 39.4228 -77.7811 85° East 378 435 15,100  Level Washington Center
03:51PM 39.4294 -77.6389 86° East 378 435 15,100  Level Washington Center
03:52PM 39.4381 -77.4994 85° East 384 442 15,100 -2,040 Level Washington Center
03:53PM 39.4500 -77.3500 84° East 397 457 11,200 -2,040 Descending Potomac TRACON
03:54PM 39.4667 -77.2000 82° East 375 432 11,000 -420 Descending Potomac TRACON
03:55PM 39.4833 -77.0667 81° East 368 423 10,400 -600 Descending Potomac TRACON
03:56PM 39.4833 -76.9667 90° East 319 367 9,900 -1,200 Descending Potomac TRACON
03:57PM 39.4667 -76.8500 100° East 300 345 8,100 -1,740 Descending Potomac TRACON
03:58PM 39.4667 -76.7500 90° East 286 329 6,500 -1,620 Descending Potomac TRACON
03:59PM 39.4333 -76.6667 117° Southeast 288 331 4,900 -1,260 Descending Potomac TRACON
04:00PM 39.3833 -76.5833 128° Southeast 277 319 4,000 -480 Descending Potomac TRACON
04:01PM 39.3333 -76.5333 142° Southeast 274 315 4,000  Level Potomac TRACON
04:02PM 39.2667 -76.5167 169° South 263 303 4,000 -660 Level Potomac TRACON
04:03PM 39.2000 -76.5000 169° South 270 311 2,800 -1,140 Descending Potomac TRACON
04:04PM 39.1333 -76.5167 191° South 249 287 1,900 -480 Descending Potomac TRACON
04:05PM 39.1000 -76.5667 229° Southwest 181 208 1,900 -240 Level Potomac TRACON
04:06PM 39.1167 -76.6167 293° West 155 178 1,500 -600 Descending Potomac TRACON
04:07PM 39.1333 -76.6333 322° Northwest 129 148 800 -780 Descending Potomac TRACON
04:09PM 39.1667 -76.6667 286° West  Level FlightAware Approximate
04:16PM 39.1754 -76.6683 286° West  Level Estimated